createdAt,value
2023-04-12T00:01:08.429Z,3.00
2023-04-12T00:03:38.094Z,2.42
2023-04-12T00:06:07.378Z,2.58
2023-04-12T00:08:37.016Z,2.65
2023-04-12T00:11:05.488Z,4.00
2023-04-12T00:13:33.582Z,3.10
2023-04-12T00:16:05.299Z,2.70
2023-04-12T00:18:34.070Z,2.95
2023-04-12T00:21:02.721Z,2.83
2023-04-12T00:23:33.812Z,2.88
2023-04-12T00:26:03.148Z,2.75
2023-04-12T00:28:36.194Z,2.72
2023-04-12T00:31:09.672Z,3.33
2023-04-12T00:33:37.934Z,2.83
2023-04-12T00:36:07.656Z,3.80
2023-04-12T00:38:35.735Z,4.57
2023-04-12T00:41:06.477Z,3.17
2023-04-12T00:43:36.281Z,3.03
2023-04-12T00:46:04.471Z,3.10
2023-04-12T00:48:33.048Z,2.92
2023-04-12T00:51:01.608Z,3.30
2023-04-12T00:53:30.111Z,3.42
2023-04-12T00:55:58.346Z,3.05
2023-04-12T00:58:28.698Z,3.70
2023-04-12T01:00:57.310Z,3.50
2023-04-12T01:03:27.773Z,3.80
2023-04-12T01:06:06.742Z,3.63
2023-04-12T01:08:41.155Z,3.15
2023-04-12T01:11:14.854Z,4.05
2023-04-12T01:13:47.081Z,3.88
2023-04-12T01:18:50.511Z,3.10
2023-04-12T01:21:30.773Z,3.83
2023-04-12T01:24:13.582Z,4.10
2023-04-12T01:26:44.331Z,3.60
2023-04-12T01:29:16.310Z,3.80
2023-04-12T01:31:52.120Z,4.30
2023-04-12T01:34:20.708Z,4.10
2023-04-12T01:36:49.365Z,4.10
2023-04-12T01:39:20.046Z,3.90
2023-04-12T01:41:50.205Z,4.03
2023-04-12T01:44:20.260Z,4.15
2023-04-12T01:46:48.583Z,4.15
2023-04-12T01:49:17.745Z,4.00
2023-04-12T01:51:51.297Z,4.22
2023-04-12T01:54:24.080Z,3.83
2023-04-12T01:57:01.329Z,4.60
2023-04-12T01:59:39.279Z,5.28
2023-04-12T02:02:07.869Z,4.55
2023-04-12T02:04:36.940Z,4.43
2023-04-12T02:07:06.637Z,4.88
2023-04-12T02:09:38.073Z,4.40
2023-04-12T02:12:06.444Z,4.32
2023-04-12T02:14:36.082Z,5.15
2023-04-12T02:17:05.848Z,4.32
2023-04-12T02:19:34.305Z,5.25
2023-04-12T02:22:04.606Z,5.40
2023-04-12T02:24:32.765Z,5.07
2023-04-12T02:27:02.470Z,4.75
2023-04-12T02:29:31.564Z,5.18
2023-04-12T02:32:01.089Z,6.43
2023-04-12T02:34:34.327Z,5.45
2023-04-12T02:37:02.442Z,5.10
2023-04-12T02:39:34.504Z,5.32
2023-04-12T02:42:03.540Z,5.50
2023-04-12T02:44:31.855Z,5.65
2023-04-12T02:47:01.507Z,4.85
2023-04-12T02:49:29.739Z,5.35
2023-04-12T02:51:59.543Z,5.75
2023-04-12T02:54:27.623Z,5.55
2023-04-12T02:56:56.359Z,5.50
2023-04-12T02:59:25.396Z,6.00
2023-04-12T03:01:56.284Z,7.70
2023-04-12T03:04:30.138Z,7.97
2023-04-12T03:06:59.826Z,6.57
2023-04-12T03:09:29.955Z,6.82
2023-04-12T03:11:58.881Z,7.13
2023-04-12T03:14:26.967Z,7.32
2023-04-12T03:16:55.306Z,6.97
2023-04-12T03:19:25.063Z,6.78
2023-04-12T03:21:55.515Z,6.50
2023-04-12T03:24:23.644Z,7.20
2023-04-12T03:26:52.293Z,7.22
2023-04-12T03:29:20.476Z,7.47
2023-04-12T03:31:49.022Z,8.18
2023-04-12T03:34:17.561Z,7.50
2023-04-12T03:36:47.030Z,7.32
2023-04-12T03:39:15.154Z,8.10
2023-04-12T03:41:43.507Z,8.00
2023-04-12T03:44:11.686Z,7.57
2023-04-12T03:46:41.763Z,8.15
2023-04-12T03:49:10.137Z,7.95
2023-04-12T03:51:42.614Z,7.38
2023-04-12T03:54:13.768Z,8.13
2023-04-12T03:56:43.162Z,8.45
2023-04-12T03:59:12.328Z,8.68
2023-04-12T04:01:40.410Z,8.35
2023-04-12T04:04:09.233Z,9.00
2023-04-12T04:06:37.603Z,8.68
2023-04-12T04:09:05.779Z,8.18
2023-04-12T04:11:35.125Z,9.20
2023-04-12T04:14:03.919Z,8.25
2023-04-12T04:16:32.086Z,9.07
2023-04-12T04:19:00.922Z,8.60
2023-04-12T04:21:30.726Z,9.68
2023-04-12T04:24:01.193Z,10.10
2023-04-12T04:26:33.569Z,9.05
2023-04-12T04:29:03.607Z,9.70
2023-04-12T04:31:34.913Z,9.63
2023-04-12T04:34:03.715Z,10.13
2023-04-12T04:36:34.669Z,10.15
2023-04-12T04:39:05.034Z,11.02
2023-04-12T04:41:39.764Z,9.18
2023-04-12T04:44:11.657Z,9.88
2023-04-12T04:46:39.887Z,9.57
2023-04-12T04:49:08.076Z,10.05
2023-04-12T04:51:36.726Z,10.15
2023-04-12T04:54:07.415Z,9.18
2023-04-12T04:56:35.446Z,9.30
2023-04-12T04:59:04.264Z,9.85
2023-04-12T05:01:37.903Z,9.27
2023-04-12T05:04:06.212Z,7.78
2023-04-12T05:06:34.582Z,8.40
2023-04-12T05:09:02.999Z,7.75
2023-04-12T05:11:31.397Z,6.95
2023-04-12T05:13:59.528Z,8.15
2023-04-12T05:16:28.003Z,7.22
2023-04-12T05:18:57.544Z,6.78
2023-04-12T05:21:26.374Z,5.88
2023-04-12T05:23:54.716Z,7.70
2023-04-12T05:26:24.160Z,5.25
2023-04-12T05:28:52.231Z,6.13
2023-04-12T05:31:20.902Z,5.05
2023-04-12T05:33:49.823Z,5.30
2023-04-12T05:36:19.167Z,4.28
2023-04-12T05:38:47.312Z,4.85
2023-04-12T05:41:15.437Z,4.00
2023-04-12T05:43:44.704Z,4.32
2023-04-12T05:46:13.443Z,4.57
2023-04-12T05:48:41.851Z,4.38
2023-04-12T05:51:10.656Z,3.67
2023-04-12T05:53:40.027Z,4.55
2023-04-12T05:56:08.862Z,4.30
2023-04-12T05:58:36.870Z,4.57
2023-04-12T06:01:06.438Z,4.72
2023-04-12T06:03:34.626Z,5.13
2023-04-12T06:06:04.153Z,4.50
2023-04-12T06:08:33.037Z,5.63
2023-04-12T06:11:04.009Z,5.10
2023-04-12T06:13:32.373Z,4.70
2023-04-12T06:16:01.404Z,4.60
2023-04-12T06:18:30.941Z,4.50
2023-04-12T06:20:58.970Z,4.43
2023-04-12T06:23:27.039Z,4.03
2023-04-12T06:25:55.814Z,3.80
2023-04-12T06:28:25.907Z,4.10
2023-04-12T06:30:54.867Z,3.95
2023-04-12T06:33:25.467Z,4.18
2023-04-12T06:35:53.538Z,4.72
2023-04-12T06:38:21.533Z,3.20
2023-04-12T06:40:51.924Z,4.00
2023-04-12T06:43:20.507Z,3.50
2023-04-12T06:45:51.010Z,3.63
2023-04-12T06:48:20.705Z,3.72
2023-04-12T06:50:48.736Z,3.38
2023-04-12T06:53:17.038Z,2.88
2023-04-12T06:55:45.826Z,3.00
2023-04-12T06:58:13.883Z,2.88
2023-04-12T07:00:41.936Z,2.72
2023-04-12T07:03:12.237Z,2.60
2023-04-12T07:05:40.846Z,2.42
2023-04-12T07:08:09.630Z,2.83
2023-04-12T07:10:40.367Z,2.80
2023-04-12T07:13:08.517Z,2.50
2023-04-12T07:15:36.577Z,3.03
2023-04-12T07:18:05.722Z,2.40
2023-04-12T07:20:35.164Z,2.28
2023-04-12T07:23:03.408Z,2.33
2023-04-12T07:25:31.716Z,2.22
2023-04-12T07:28:00.124Z,2.42
2023-04-12T07:30:28.173Z,2.25
2023-04-12T07:33:05.311Z,2.20
2023-04-12T07:35:43.966Z,2.00
2023-04-12T07:38:12.827Z,2.13
2023-04-12T07:40:41.542Z,2.38
2023-04-12T07:43:09.944Z,2.10
2023-04-12T07:45:39.232Z,2.22
2023-04-12T07:48:08.370Z,1.52
2023-04-12T07:50:36.956Z,1.85
2023-04-12T07:53:23.191Z,1.70
2023-04-12T07:55:52.730Z,1.55
2023-04-12T07:58:25.542Z,1.77
2023-04-12T08:00:54.817Z,1.50
2023-04-12T08:03:24.652Z,1.45
2023-04-12T08:05:54.193Z,1.67
2023-04-12T08:08:24.424Z,1.60
2023-04-12T08:10:53.526Z,1.73
2023-04-12T08:13:21.689Z,1.70
2023-04-12T08:15:50.036Z,1.30
2023-04-12T08:18:18.566Z,1.40
2023-04-12T08:20:47.294Z,1.60
2023-04-12T08:23:18.001Z,1.45
2023-04-12T08:25:49.952Z,1.25
2023-04-12T08:28:19.752Z,1.38
2023-04-12T08:30:48.038Z,1.48
2023-04-12T08:33:17.534Z,1.67
2023-04-12T08:35:47.002Z,1.80
2023-04-12T08:38:16.118Z,1.50
2023-04-12T08:40:44.292Z,2.08
2023-04-12T08:43:14.864Z,1.58
2023-04-12T08:45:43.645Z,1.60
2023-04-12T08:48:12.380Z,1.30
2023-04-12T08:50:41.705Z,1.67
2023-04-12T08:53:12.874Z,1.75
2023-04-12T08:55:46.432Z,1.60
2023-04-12T08:58:16.880Z,1.73
2023-04-12T09:00:46.410Z,1.73
2023-04-12T09:03:17.831Z,2.30
2023-04-12T09:05:47.655Z,1.45
2023-04-12T09:08:17.605Z,1.85
2023-04-12T09:10:45.802Z,1.90
2023-04-12T09:13:16.519Z,2.25
2023-04-12T09:15:52.387Z,2.35
2023-04-12T09:18:20.506Z,1.85
2023-04-12T09:20:50.769Z,1.40
2023-04-12T09:23:20.536Z,1.70
2023-04-12T09:25:52.024Z,1.60
2023-04-12T09:28:27.304Z,1.70
2023-04-12T09:31:00.546Z,1.45
2023-04-12T09:33:41.803Z,1.50
2023-04-12T09:36:13.795Z,1.77
2023-04-12T09:38:43.979Z,1.88
2023-04-12T09:41:22.553Z,1.38
2023-04-12T09:43:54.838Z,1.55
2023-04-12T09:46:24.263Z,1.80
2023-04-12T09:48:53.315Z,1.52
2023-04-12T09:51:29.310Z,1.65
2023-04-12T09:54:01.118Z,1.65
2023-04-12T09:56:32.390Z,1.60
2023-04-12T09:59:07.135Z,1.67
2023-04-12T10:01:45.627Z,1.73
2023-04-12T10:04:14.615Z,1.75
2023-04-12T10:06:43.853Z,1.40
2023-04-12T10:09:17.948Z,1.63
2023-04-12T10:11:46.503Z,2.50
2023-04-12T10:14:17.042Z,2.20
2023-04-12T10:16:49.162Z,1.92
2023-04-12T10:19:18.664Z,2.05
2023-04-12T10:21:47.104Z,1.65
2023-04-12T10:24:16.993Z,1.63
2023-04-12T10:26:46.739Z,1.45
2023-04-12T10:29:25.850Z,1.90
2023-04-12T10:31:56.703Z,1.65
2023-04-12T10:34:26.889Z,1.77
2023-04-12T10:36:57.484Z,1.52
2023-04-12T10:39:40.487Z,1.70
2023-04-12T10:42:25.620Z,1.67
2023-04-12T10:44:55.040Z,1.58
2023-04-12T10:48:06.777Z,1.58
2023-04-12T10:50:37.275Z,1.40
2023-04-12T10:53:27.825Z,1.50
2023-04-12T10:55:56.035Z,2.03
2023-04-12T10:58:56.352Z,1.20
2023-04-12T11:01:25.219Z,1.27
2023-04-12T11:04:15.754Z,1.80
2023-04-12T11:07:09.781Z,1.48
2023-04-12T11:09:43.087Z,1.55
2023-04-12T11:12:16.748Z,1.50
2023-04-12T11:14:48.037Z,1.60
2023-04-12T11:17:26.572Z,1.55
2023-04-12T11:20:02.121Z,1.60
2023-04-12T11:22:34.675Z,1.70
2023-04-12T11:25:05.167Z,1.77
2023-04-12T11:27:35.432Z,1.88
2023-04-12T11:30:03.616Z,1.42
2023-04-12T11:32:34.176Z,1.95
2023-04-12T11:35:04.070Z,1.73
2023-04-12T11:37:32.300Z,1.48
2023-04-12T11:40:00.896Z,1.50
2023-04-12T11:42:30.485Z,1.65
2023-04-12T11:45:04.784Z,1.58
2023-04-12T11:47:36.057Z,1.30
2023-04-12T11:50:07.058Z,1.42
2023-04-12T11:52:35.235Z,1.60
2023-04-12T11:55:06.645Z,1.50
2023-04-12T11:57:35.638Z,1.52
2023-04-12T12:00:07.067Z,1.70
2023-04-12T12:02:43.165Z,1.48
2023-04-12T12:05:18.737Z,1.73
2023-04-12T12:07:48.274Z,1.60
2023-04-12T12:10:32.488Z,1.35
2023-04-12T12:13:11.339Z,1.60
2023-04-12T12:15:40.792Z,1.70
2023-04-12T12:18:09.997Z,1.50
2023-04-12T12:20:43.693Z,1.40
2023-04-12T12:23:13.261Z,1.50
2023-04-12T12:25:47.378Z,0.90
2023-04-12T12:28:16.469Z,1.30
2023-04-12T12:30:45.252Z,1.95
2023-04-12T12:33:14.229Z,1.90
2023-04-12T12:35:44.247Z,1.73
2023-04-12T12:38:13.847Z,1.35
2023-04-12T12:40:43.025Z,1.20
2023-04-12T12:43:19.186Z,1.52
2023-04-12T12:45:49.160Z,1.70
2023-04-12T12:48:19.534Z,2.22
2023-04-12T12:50:51.051Z,1.50
2023-04-12T12:53:22.547Z,1.80
2023-04-12T12:55:52.357Z,1.60
2023-04-12T12:58:21.905Z,1.58
2023-04-12T13:00:49.988Z,1.75
2023-04-12T13:03:18.384Z,1.98
2023-04-12T13:05:46.705Z,1.30
2023-04-12T13:08:16.282Z,1.85
2023-04-12T13:10:44.974Z,1.90
2023-04-12T13:13:13.120Z,1.88
2023-04-12T13:15:42.301Z,1.83
2023-04-12T13:18:11.761Z,1.65
2023-04-12T13:20:40.054Z,1.80
2023-04-12T13:23:08.802Z,1.80
2023-04-12T13:25:38.381Z,2.08
2023-04-12T13:28:06.891Z,1.73
2023-04-12T13:30:35.292Z,1.63
2023-04-12T13:33:05.779Z,1.80
2023-04-12T13:35:35.251Z,1.25
2023-04-12T13:38:03.410Z,1.50
2023-04-12T13:40:32.877Z,1.50
2023-04-12T13:43:05.329Z,1.50
2023-04-12T13:45:34.269Z,1.73
2023-04-12T13:48:02.636Z,1.48
2023-04-12T13:50:31.059Z,1.48
2023-04-12T13:53:04.123Z,1.65
2023-04-12T13:55:33.224Z,1.65
2023-04-12T13:58:04.299Z,1.45
2023-04-12T14:00:33.020Z,1.17
2023-04-12T14:03:03.107Z,1.48
2023-04-12T14:05:32.829Z,1.48
2023-04-12T14:08:01.138Z,1.05
2023-04-12T14:10:29.340Z,1.40
2023-04-12T14:12:57.702Z,2.10
2023-04-12T14:15:28.260Z,1.50
2023-04-12T14:17:57.200Z,1.50
2023-04-12T14:20:25.995Z,1.42
2023-04-12T14:22:54.327Z,1.20
2023-04-12T14:25:25.343Z,1.63
2023-04-12T14:27:53.635Z,1.50
2023-04-12T14:30:22.371Z,1.83
2023-04-12T14:32:53.496Z,2.80
2023-04-12T14:35:24.388Z,1.70
2023-04-12T14:37:54.305Z,1.55
2023-04-12T14:40:23.081Z,2.00
2023-04-12T14:42:51.815Z,1.90
2023-04-12T14:45:21.276Z,1.75
2023-04-12T14:47:50.455Z,1.88
2023-04-12T14:50:21.547Z,2.10
2023-04-12T14:52:51.736Z,2.05
2023-04-12T14:55:21.261Z,1.52
2023-04-12T14:57:49.627Z,1.92
2023-04-12T15:00:20.364Z,2.95
2023-04-12T15:02:49.992Z,2.60
2023-04-12T15:05:18.430Z,1.80
2023-04-12T15:07:50.432Z,2.08
2023-04-12T15:10:24.772Z,1.90
2023-04-12T15:12:54.689Z,1.70
2023-04-12T15:15:22.981Z,2.25
2023-04-12T15:17:51.876Z,2.13
2023-04-12T15:20:20.644Z,2.20
2023-04-12T15:22:52.217Z,2.08
2023-04-12T15:25:22.127Z,1.90
2023-04-12T15:27:50.787Z,2.83
2023-04-12T15:30:19.270Z,2.58
2023-04-12T15:32:50.890Z,2.15
2023-04-12T15:35:26.989Z,2.90
2023-04-12T15:37:59.917Z,2.70
2023-04-12T15:43:04.041Z,2.08
2023-04-12T15:45:34.146Z,2.80
2023-04-12T15:48:06.552Z,2.50
2023-04-12T15:53:05.224Z,3.42
2023-04-12T15:55:34.000Z,2.83
2023-04-12T15:58:02.468Z,2.90
2023-04-12T16:00:34.783Z,2.30
2023-04-12T16:05:37.151Z,2.97
2023-04-12T16:08:07.912Z,3.88
2023-04-12T16:10:38.488Z,2.47
2023-04-12T16:13:09.384Z,3.27
2023-04-12T16:15:37.677Z,3.90
2023-04-12T16:18:06.545Z,2.92
2023-04-12T16:20:34.986Z,2.85
2023-04-12T16:23:05.481Z,3.10
2023-04-12T16:25:35.893Z,2.83
2023-04-12T16:28:05.548Z,3.28
2023-04-12T16:30:33.966Z,2.42
2023-04-12T16:33:04.191Z,2.20
2023-04-12T16:35:32.545Z,1.90
2023-04-12T16:38:04.455Z,1.60
2023-04-12T16:40:32.629Z,1.65
2023-04-12T16:43:02.107Z,1.90
2023-04-12T16:45:30.341Z,1.30
2023-04-12T16:47:58.586Z,1.65
2023-04-12T16:50:27.804Z,2.08
2023-04-12T16:52:56.020Z,1.58
2023-04-12T16:55:25.207Z,1.75
2023-04-12T16:57:53.786Z,1.48
2023-04-12T17:00:25.244Z,1.67
2023-04-12T17:02:56.526Z,1.93
2023-04-12T17:07:55.525Z,1.48
2023-04-12T17:10:25.279Z,1.70
2023-04-12T17:12:54.568Z,1.60
2023-04-12T17:15:25.979Z,1.60
2023-04-12T17:18:00.786Z,1.83
2023-04-12T17:20:30.447Z,2.30
2023-04-12T17:23:00.151Z,2.08
2023-04-12T17:25:31.572Z,2.22
2023-04-12T17:28:01.701Z,2.58
2023-04-12T17:30:31.895Z,2.13
2023-04-12T17:33:01.355Z,2.38
2023-04-12T17:35:30.416Z,2.50
2023-04-12T17:37:58.438Z,2.67
2023-04-12T17:40:27.164Z,2.63
2023-04-12T17:42:55.690Z,2.63
2023-04-12T17:45:24.503Z,2.97
2023-04-12T17:47:54.636Z,2.58
2023-04-12T17:50:24.154Z,2.53
2023-04-12T17:52:52.282Z,2.72
2023-04-12T17:55:27.152Z,3.05
2023-04-12T17:58:00.301Z,3.13
2023-04-12T18:00:28.411Z,3.05
2023-04-12T18:03:01.243Z,3.67
2023-04-12T18:05:29.399Z,3.55
2023-04-12T18:07:58.269Z,3.55
2023-04-12T18:10:27.630Z,3.80
2023-04-12T18:12:56.659Z,3.75
2023-04-12T18:15:27.798Z,3.50
2023-04-12T18:17:57.140Z,4.15
2023-04-12T18:20:27.757Z,3.90
2023-04-12T18:22:57.719Z,3.90
2023-04-12T18:25:25.937Z,4.53
2023-04-12T18:27:55.888Z,3.83
2023-04-12T18:30:25.379Z,4.60
2023-04-12T18:32:55.430Z,3.90
2023-04-12T18:35:26.367Z,3.35
2023-04-12T18:37:54.374Z,4.28
2023-04-12T18:40:23.901Z,4.28
2023-04-12T18:42:52.173Z,3.72
2023-04-12T18:45:20.856Z,3.78
2023-04-12T18:47:48.900Z,3.90
2023-04-12T18:50:19.360Z,3.75
2023-04-12T18:52:48.816Z,3.63
2023-04-12T18:55:17.726Z,3.20
2023-04-12T18:57:47.722Z,3.70
2023-04-12T19:00:18.579Z,3.42
2023-04-12T19:02:47.040Z,3.50
2023-04-12T19:05:16.222Z,3.55
2023-04-12T19:07:47.075Z,3.42
2023-04-12T19:10:17.629Z,3.33
2023-04-12T19:12:45.733Z,3.72
2023-04-12T19:15:15.060Z,3.50
2023-04-12T19:17:44.624Z,3.33
2023-04-12T19:20:12.999Z,3.65
2023-04-12T19:22:41.590Z,3.30
2023-04-12T19:25:10.784Z,3.40
2023-04-12T19:27:41.095Z,3.83
2023-04-12T19:30:12.974Z,3.38
2023-04-12T19:32:42.429Z,3.63
2023-04-12T19:35:11.732Z,3.50
2023-04-12T19:37:39.867Z,3.42
2023-04-12T19:40:12.480Z,3.30
2023-04-12T19:42:42.831Z,3.88
2023-04-12T19:45:11.012Z,3.22
2023-04-12T19:47:44.659Z,3.60
2023-04-12T19:50:15.691Z,3.03
2023-04-12T19:52:44.263Z,3.28
2023-04-12T19:55:12.642Z,3.28
2023-04-12T19:57:43.204Z,3.13
2023-04-12T20:00:19.971Z,3.88
2023-04-12T20:02:52.900Z,3.10
2023-04-12T20:05:22.412Z,3.58
2023-04-12T20:07:52.589Z,3.10
2023-04-12T20:10:21.949Z,3.30
2023-04-12T20:12:52.375Z,3.10
2023-04-12T20:15:20.526Z,3.35
2023-04-12T20:17:52.292Z,3.13
2023-04-12T20:20:20.682Z,3.35
2023-04-12T20:22:51.919Z,3.17
2023-04-12T20:25:21.155Z,3.58
2023-04-12T20:27:52.514Z,3.22
2023-04-12T20:30:26.175Z,4.05
2023-04-12T20:32:55.130Z,3.25
2023-04-12T20:35:24.300Z,4.05
2023-04-12T20:37:52.927Z,3.22
2023-04-12T20:40:23.510Z,3.80
2023-04-12T20:42:51.612Z,4.00
2023-04-12T20:45:21.681Z,3.92
2023-04-12T20:47:52.140Z,3.78
2023-04-12T20:50:22.491Z,4.53
2023-04-12T20:52:52.403Z,4.82
2023-04-12T20:55:22.766Z,4.13
2023-04-12T20:57:51.216Z,5.35
2023-04-12T21:00:23.570Z,5.00
2023-04-12T21:05:22.941Z,5.65
2023-04-12T21:07:51.242Z,5.57
2023-04-12T21:10:19.426Z,5.53
2023-04-12T21:12:48.140Z,7.03
2023-04-12T21:15:18.388Z,6.15
2023-04-12T21:17:46.672Z,7.00
2023-04-12T21:20:19.941Z,7.40
2023-04-12T21:22:48.259Z,7.53
2023-04-12T21:25:17.247Z,7.10
2023-04-12T21:27:47.801Z,7.65
2023-04-12T21:30:16.356Z,7.65
2023-04-12T21:32:48.185Z,7.95
2023-04-12T21:35:18.401Z,8.77
2023-04-12T21:37:46.924Z,9.45
2023-04-12T21:40:18.631Z,9.05
2023-04-12T21:42:48.788Z,9.85
2023-04-12T21:45:17.046Z,9.27
2023-04-12T21:47:45.546Z,10.15
2023-04-12T21:50:14.672Z,10.70
2023-04-12T21:52:45.674Z,10.15
2023-04-12T21:55:13.927Z,10.00
2023-04-12T21:57:42.127Z,10.73
2023-04-12T22:00:12.602Z,10.35
2023-04-12T22:02:40.859Z,9.40
2023-04-12T22:05:09.848Z,10.48
2023-04-12T22:07:41.253Z,10.15
2023-04-12T22:10:14.130Z,9.65
2023-04-12T22:12:50.406Z,10.77
2023-04-12T22:15:18.720Z,10.93
2023-04-12T22:17:47.374Z,11.00
2023-04-12T22:20:15.724Z,11.27
2023-04-12T22:22:44.341Z,11.75
2023-04-12T22:25:16.066Z,12.23
2023-04-12T22:27:46.446Z,11.05
2023-04-12T22:30:15.935Z,11.60
2023-04-12T22:32:46.028Z,12.43
2023-04-12T22:35:14.491Z,11.82
2023-04-12T22:37:43.243Z,12.25
2023-04-12T22:40:13.781Z,12.57
2023-04-12T22:42:46.920Z,12.25
2023-04-12T22:45:15.901Z,12.93
2023-04-12T22:47:44.218Z,12.43
2023-04-12T22:50:29.482Z,12.48
2023-04-12T22:52:58.616Z,13.07
2023-04-12T22:55:28.092Z,13.45
2023-04-12T22:58:01.119Z,12.95
2023-04-12T23:00:35.164Z,13.38
2023-04-12T23:03:10.720Z,14.82
2023-04-12T23:05:44.883Z,14.15
2023-04-12T23:08:15.790Z,15.05
2023-04-12T23:10:46.407Z,15.23
2023-04-12T23:13:19.775Z,14.40
2023-04-12T23:15:50.106Z,14.55
2023-04-12T23:18:18.983Z,16.10
2023-04-12T23:20:49.380Z,15.63
2023-04-12T23:23:18.377Z,16.05
2023-04-12T23:25:46.912Z,15.75
2023-04-12T23:28:19.586Z,16.25
2023-04-12T23:30:52.195Z,15.98
2023-04-12T23:33:22.692Z,15.80
2023-04-12T23:35:53.282Z,16.10
2023-04-12T23:38:26.177Z,15.70
2023-04-12T23:40:54.855Z,16.50
2023-04-12T23:43:27.190Z,17.70
2023-04-12T23:45:59.271Z,17.13
2023-04-12T23:48:28.382Z,16.88
2023-04-12T23:50:57.278Z,16.45
2023-04-12T23:53:25.769Z,16.83
2023-04-12T23:55:56.772Z,16.40
2023-04-12T23:58:28.083Z,15.97
